createdAt,value
2023-01-19T00:01:31.245Z,3.30
2023-01-19T00:03:58.586Z,3.30
2023-01-19T00:06:25.833Z,3.30
2023-01-19T00:08:53.034Z,3.30
2023-01-19T00:11:20.371Z,3.30
2023-01-19T00:13:50.695Z,3.20
2023-01-19T00:16:18.917Z,3.20
2023-01-19T00:18:46.341Z,3.20
2023-01-19T00:21:16.506Z,3.20
2023-01-19T00:23:47.389Z,3.20
2023-01-19T00:26:16.308Z,3.20
2023-01-19T00:28:44.095Z,3.20
2023-01-19T00:31:11.862Z,3.20
2023-01-19T00:33:39.073Z,3.20
2023-01-19T00:36:06.600Z,3.20
2023-01-19T00:38:33.740Z,3.20
2023-01-19T00:41:00.934Z,3.30
2023-01-19T00:43:28.222Z,3.20
2023-01-19T00:45:55.433Z,3.10
2023-01-19T00:48:22.673Z,3.10
2023-01-19T00:50:49.853Z,3.20
2023-01-19T00:53:17.119Z,3.20
2023-01-19T00:55:44.326Z,3.20
2023-01-19T00:58:11.459Z,3.20
2023-01-19T01:00:38.862Z,3.20
2023-01-19T01:03:06.156Z,3.20
2023-01-19T01:05:33.467Z,3.20
2023-01-19T01:08:00.724Z,3.20
2023-01-19T01:10:29.189Z,3.20
2023-01-19T01:12:57.686Z,3.20
2023-01-19T01:15:27.665Z,3.20
2023-01-19T01:17:55.469Z,3.20
2023-01-19T01:20:26.996Z,3.20
2023-01-19T01:22:54.491Z,3.20
2023-01-19T01:25:23.242Z,3.10
2023-01-19T01:27:51.261Z,3.10
2023-01-19T01:30:21.207Z,3.10
2023-01-19T01:32:49.034Z,3.10
2023-01-19T01:35:16.341Z,3.10
2023-01-19T01:37:43.533Z,3.10
2023-01-19T01:40:13.355Z,3.10
2023-01-19T01:42:40.748Z,3.20
2023-01-19T01:45:31.048Z,3.20
2023-01-19T01:48:23.852Z,3.20
2023-01-19T01:51:22.425Z,3.10
2023-01-19T01:53:59.757Z,3.10
2023-01-19T01:56:32.975Z,3.10
2023-01-19T01:59:00.259Z,3.10
2023-01-19T02:01:46.251Z,3.10
2023-01-19T02:04:13.709Z,3.10
2023-01-19T02:06:59.563Z,3.00
2023-01-19T02:09:45.436Z,3.00
2023-01-19T02:12:31.376Z,3.00
2023-01-19T02:14:58.642Z,3.00
2023-01-19T02:17:25.856Z,3.00
2023-01-19T02:19:53.886Z,3.00
2023-01-19T02:22:35.979Z,3.00
2023-01-19T02:25:04.932Z,3.00
2023-01-19T02:27:32.634Z,3.00
2023-01-19T02:30:00.580Z,3.00
2023-01-19T02:32:28.174Z,2.90
2023-01-19T02:34:55.393Z,2.90
2023-01-19T02:37:22.659Z,2.80
2023-01-19T02:39:55.758Z,2.90
2023-01-19T02:42:29.869Z,2.90
2023-01-19T02:44:57.287Z,3.00
2023-01-19T02:47:24.665Z,3.00
2023-01-19T02:49:57.090Z,3.00
2023-01-19T02:52:24.586Z,3.00
2023-01-19T02:55:07.078Z,3.00
2023-01-19T02:58:01.300Z,3.10
2023-01-19T03:00:59.802Z,3.10
2023-01-19T03:03:46.273Z,3.00
2023-01-19T03:06:55.967Z,3.00
2023-01-19T03:09:38.147Z,3.10
2023-01-19T03:12:18.934Z,3.10
2023-01-19T03:14:46.753Z,3.20
2023-01-19T03:17:15.277Z,3.20
2023-01-19T03:19:42.971Z,3.20
2023-01-19T03:22:22.960Z,3.10
2023-01-19T03:24:50.496Z,3.20
2023-01-19T03:27:31.256Z,3.20
2023-01-19T03:30:22.286Z,3.20
2023-01-19T03:33:07.219Z,3.20
2023-01-19T03:35:36.841Z,3.20
2023-01-19T03:38:06.704Z,3.20
2023-01-19T03:40:34.853Z,3.20
2023-01-19T03:43:02.870Z,3.20
2023-01-19T03:45:31.511Z,3.20
2023-01-19T03:47:59.633Z,3.20
2023-01-19T03:50:29.001Z,3.20
2023-01-19T03:53:16.660Z,3.20
2023-01-19T03:55:48.264Z,3.20
2023-01-19T03:58:15.459Z,3.20
2023-01-19T04:00:42.789Z,3.20
2023-01-19T04:03:17.177Z,3.20
2023-01-19T04:05:44.470Z,3.20
2023-01-19T04:08:12.000Z,3.20
2023-01-19T04:10:39.533Z,3.10
2023-01-19T04:13:06.836Z,3.10
2023-01-19T04:15:34.163Z,3.10
2023-01-19T04:18:01.507Z,3.10
2023-01-19T04:20:28.848Z,3.10
2023-01-19T04:22:59.420Z,3.00
2023-01-19T04:25:27.894Z,2.90
2023-01-19T04:27:55.333Z,2.90
2023-01-19T04:30:22.739Z,2.90
2023-01-19T04:32:50.062Z,3.00
2023-01-19T04:35:17.422Z,3.10
2023-01-19T04:37:45.123Z,3.10
2023-01-19T04:40:12.712Z,3.20
2023-01-19T04:42:43.909Z,3.20
2023-01-19T04:45:12.553Z,3.20
2023-01-19T04:47:40.119Z,3.20
2023-01-19T04:50:08.728Z,3.20
2023-01-19T04:52:36.224Z,3.20
2023-01-19T04:55:04.835Z,3.20
2023-01-19T04:57:32.113Z,3.10
2023-01-19T04:59:59.363Z,3.10
2023-01-19T05:02:26.655Z,3.10
2023-01-19T05:04:53.872Z,3.10
2023-01-19T05:07:21.133Z,3.10
2023-01-19T05:09:48.369Z,3.10
2023-01-19T05:12:15.625Z,3.10
2023-01-19T05:14:43.349Z,3.10
2023-01-19T05:17:10.700Z,3.10
2023-01-19T05:19:37.879Z,3.00
2023-01-19T05:22:05.527Z,3.00
2023-01-19T05:24:32.819Z,3.00
2023-01-19T05:27:00.095Z,3.00
2023-01-19T05:29:27.290Z,2.90
2023-01-19T05:31:54.700Z,2.90
2023-01-19T05:34:21.860Z,3.00
2023-01-19T05:36:49.092Z,3.00
2023-01-19T05:39:16.268Z,2.90
2023-01-19T05:41:45.494Z,2.90
2023-01-19T05:44:13.410Z,2.90
2023-01-19T05:46:40.901Z,3.00
2023-01-19T05:49:08.156Z,3.00
2023-01-19T05:51:38.129Z,2.90
2023-01-19T05:54:07.773Z,3.00
2023-01-19T05:56:35.616Z,3.00
2023-01-19T05:59:06.244Z,3.00
2023-01-19T06:01:38.941Z,3.00
2023-01-19T06:04:07.191Z,3.00
2023-01-19T06:06:35.159Z,3.00
2023-01-19T06:09:03.076Z,3.00
2023-01-19T06:11:30.285Z,3.00
2023-01-19T06:13:57.694Z,3.00
2023-01-19T06:16:24.947Z,3.00
2023-01-19T06:18:59.368Z,3.10
2023-01-19T06:21:29.289Z,3.00
2023-01-19T06:23:56.548Z,3.10
2023-01-19T06:26:23.697Z,3.00
2023-01-19T06:28:54.502Z,3.00
2023-01-19T06:31:22.952Z,3.00
2023-01-19T06:33:50.195Z,3.00
2023-01-19T06:36:17.361Z,3.00
2023-01-19T06:38:44.637Z,3.00
2023-01-19T06:41:12.893Z,3.00
2023-01-19T06:43:40.088Z,3.00
2023-01-19T06:46:07.488Z,3.00
2023-01-19T06:48:34.795Z,3.00
2023-01-19T06:51:04.333Z,3.00
2023-01-19T06:53:31.842Z,2.90
2023-01-19T06:56:01.770Z,2.90
2023-01-19T06:58:29.535Z,2.90
2023-01-19T07:01:01.525Z,2.80
2023-01-19T07:03:28.963Z,2.80
2023-01-19T07:05:56.942Z,2.70
2023-01-19T07:08:24.390Z,2.70
2023-01-19T07:11:23.118Z,2.70
2023-01-19T07:13:39.953Z,2.70
2023-01-19T07:16:10.058Z,2.70
2023-01-19T07:18:38.129Z,2.60
2023-01-19T07:21:05.839Z,2.50
2023-01-19T07:23:33.261Z,2.60
2023-01-19T07:26:03.579Z,2.60
2023-01-19T07:28:31.743Z,2.60
2023-01-19T07:30:59.618Z,2.60
2023-01-19T07:33:28.263Z,2.50
2023-01-19T07:35:55.433Z,2.50
2023-01-19T07:38:22.817Z,2.50
2023-01-19T07:40:50.043Z,2.40
2023-01-19T07:43:17.219Z,2.40
2023-01-19T07:45:46.499Z,2.50
2023-01-19T07:48:13.816Z,2.40
2023-01-19T07:50:41.618Z,2.40
2023-01-19T07:53:09.254Z,2.40
2023-01-19T07:55:36.627Z,2.40
2023-01-19T07:58:07.308Z,2.30
2023-01-19T08:00:35.957Z,2.30
2023-01-19T08:03:04.200Z,2.30
2023-01-19T08:05:33.022Z,2.30
2023-01-19T08:08:00.969Z,2.30
2023-01-19T08:10:28.626Z,2.30
2023-01-19T08:12:56.822Z,2.30
2023-01-19T08:15:25.065Z,2.30
2023-01-19T08:18:02.800Z,2.30
2023-01-19T08:20:30.261Z,2.30
2023-01-19T08:23:01.512Z,2.20
2023-01-19T08:25:45.164Z,2.30
2023-01-19T08:28:17.790Z,2.30
2023-01-19T08:30:45.476Z,2.20
2023-01-19T08:33:13.330Z,2.10
2023-01-19T08:35:55.793Z,2.10
2023-01-19T08:38:25.418Z,2.10
2023-01-19T08:41:02.004Z,2.00
2023-01-19T08:43:29.620Z,2.00
2023-01-19T08:46:08.540Z,2.00
2023-01-19T08:48:36.196Z,2.10
2023-01-19T08:51:06.199Z,2.00
2023-01-19T08:53:50.964Z,2.10
2023-01-19T08:56:20.934Z,2.10
2023-01-19T08:58:59.471Z,2.10
2023-01-19T09:01:37.359Z,2.00
2023-01-19T09:04:05.098Z,2.00
2023-01-19T09:06:43.529Z,1.90
2023-01-19T09:09:18.095Z,1.90
2023-01-19T09:12:04.002Z,1.90
2023-01-19T09:14:35.134Z,1.90
2023-01-19T09:17:06.435Z,1.90
2023-01-19T09:19:35.045Z,1.90
2023-01-19T09:22:05.991Z,1.90
2023-01-19T09:24:45.188Z,1.90
2023-01-19T09:27:21.059Z,2.00
2023-01-19T09:29:52.583Z,2.00
2023-01-19T09:32:25.332Z,1.90
2023-01-19T09:35:03.825Z,1.90
2023-01-19T09:37:39.514Z,1.80
2023-01-19T09:40:08.965Z,1.80
2023-01-19T09:43:17.605Z,1.70
2023-01-19T09:46:15.512Z,1.70
2023-01-19T09:49:27.848Z,1.70
2023-01-19T09:52:06.592Z,1.70
2023-01-19T09:54:48.994Z,1.70
2023-01-19T09:57:35.240Z,1.70
2023-01-19T10:00:18.686Z,1.80
2023-01-19T10:03:13.228Z,1.70
2023-01-19T10:05:55.941Z,1.80
2023-01-19T10:08:46.360Z,1.80
2023-01-19T10:11:59.389Z,1.80
2023-01-19T10:15:30.850Z,1.70
2023-01-19T10:18:35.923Z,1.70
2023-01-19T10:21:32.790Z,1.70
2023-01-19T10:24:10.111Z,1.60
2023-01-19T10:26:51.141Z,1.50
2023-01-19T10:29:39.538Z,1.50
2023-01-19T10:32:36.692Z,1.60
2023-01-19T10:35:21.975Z,1.60
2023-01-19T10:37:49.771Z,1.60
2023-01-19T10:40:56.817Z,1.60
2023-01-19T10:43:48.202Z,1.60
2023-01-19T10:46:30.564Z,1.50
2023-01-19T10:49:03.066Z,1.50
2023-01-19T10:51:30.561Z,1.50
2023-01-19T10:54:09.727Z,1.50
2023-01-19T10:56:45.953Z,1.40
2023-01-19T11:00:30.682Z,1.40
2023-01-19T11:03:08.427Z,1.40
2023-01-19T11:06:16.573Z,1.30
2023-01-19T11:08:51.910Z,1.30
2023-01-19T11:11:32.364Z,1.30
2023-01-19T11:14:23.677Z,1.20
2023-01-19T11:16:56.911Z,1.30
2023-01-19T11:19:34.504Z,1.30
2023-01-19T11:22:27.076Z,1.40
2023-01-19T11:25:05.050Z,1.50
2023-01-19T11:27:49.406Z,1.50
2023-01-19T11:33:27.769Z,1.50
2023-01-19T11:36:30.249Z,1.50
2023-01-19T11:39:28.996Z,1.50
2023-01-19T11:41:59.136Z,1.50
2023-01-19T11:44:58.361Z,1.50
2023-01-19T11:47:44.272Z,1.60
2023-01-19T11:50:25.347Z,1.60
2023-01-19T11:53:15.650Z,1.60
2023-01-19T11:56:41.175Z,1.60
2023-01-19T11:59:12.025Z,1.70
2023-01-19T12:01:45.830Z,1.70
2023-01-19T12:04:35.450Z,1.70
2023-01-19T12:07:09.000Z,1.70
2023-01-19T12:09:53.137Z,1.80
2023-01-19T12:12:30.924Z,1.80
2023-01-19T12:15:09.193Z,1.80
2023-01-19T12:17:40.645Z,1.80
2023-01-19T12:20:34.062Z,1.70
2023-01-19T12:23:25.152Z,1.70
2023-01-19T12:26:13.256Z,1.70
2023-01-19T12:28:46.136Z,1.60
2023-01-19T12:31:17.736Z,1.60
2023-01-19T12:33:45.139Z,1.60
2023-01-19T12:36:35.392Z,1.70
2023-01-19T12:39:10.466Z,1.70
2023-01-19T12:41:38.744Z,1.60
2023-01-19T12:44:12.080Z,1.70
2023-01-19T12:46:50.132Z,1.60
2023-01-19T12:49:29.646Z,1.70
2023-01-19T12:52:33.404Z,1.70
2023-01-19T12:55:01.735Z,1.70
2023-01-19T12:57:49.528Z,1.70
2023-01-19T13:00:22.701Z,1.80
2023-01-19T13:02:53.820Z,1.80
2023-01-19T13:05:39.066Z,1.80
2023-01-19T13:08:06.448Z,1.90
2023-01-19T13:11:15.006Z,1.80
2023-01-19T13:13:48.795Z,1.90
2023-01-19T13:16:19.082Z,2.00
2023-01-19T13:18:57.071Z,2.00
2023-01-19T13:21:34.703Z,2.00
2023-01-19T13:24:06.535Z,2.00
2023-01-19T13:26:49.671Z,2.00
2023-01-19T13:29:37.286Z,2.00
2023-01-19T13:32:13.285Z,2.10
2023-01-19T13:34:44.449Z,2.00
2023-01-19T13:37:20.757Z,2.00
2023-01-19T13:39:50.222Z,2.10
2023-01-19T13:42:31.111Z,2.10
2023-01-19T13:45:00.170Z,2.20
2023-01-19T13:47:43.063Z,2.20
2023-01-19T13:50:31.525Z,2.20
2023-01-19T13:52:59.406Z,2.20
2023-01-19T13:55:28.406Z,2.20
2023-01-19T13:57:55.994Z,2.20
2023-01-19T14:00:29.159Z,2.20
2023-01-19T14:03:09.767Z,2.20
2023-01-19T14:05:41.893Z,2.10
2023-01-19T14:08:11.105Z,2.10
2023-01-19T14:10:54.285Z,2.10
2023-01-19T14:13:23.063Z,2.10
2023-01-19T14:15:51.687Z,2.10
2023-01-19T14:18:18.965Z,2.10
2023-01-19T14:21:14.125Z,2.10
2023-01-19T14:23:47.452Z,2.10
2023-01-19T14:26:53.905Z,2.10
2023-01-19T14:29:33.603Z,2.10
2023-01-19T14:32:00.867Z,2.10
2023-01-19T14:34:39.777Z,2.10
2023-01-19T14:37:21.053Z,2.10
2023-01-19T14:39:56.583Z,2.10
2023-01-19T14:42:42.209Z,2.20
2023-01-19T14:45:34.672Z,2.20
2023-01-19T14:48:31.222Z,2.20
2023-01-19T14:51:03.654Z,2.20
2023-01-19T14:53:37.113Z,2.10
2023-01-19T14:56:05.694Z,2.10
2023-01-19T14:58:34.439Z,2.10
2023-01-19T15:01:02.060Z,2.00
2023-01-19T15:03:44.023Z,2.10
2023-01-19T15:06:19.872Z,2.10
2023-01-19T15:08:47.362Z,2.10
2023-01-19T15:11:33.853Z,2.10
2023-01-19T15:14:01.497Z,2.10
2023-01-19T15:16:29.930Z,2.00
2023-01-19T15:18:57.301Z,1.90
2023-01-19T15:21:26.563Z,1.90
2023-01-19T15:23:54.596Z,1.90
2023-01-19T15:26:24.004Z,1.90
2023-01-19T15:28:51.355Z,1.90
2023-01-19T15:31:21.052Z,1.90
2023-01-19T15:33:48.432Z,1.90
2023-01-19T15:36:21.510Z,1.80
2023-01-19T15:38:51.380Z,1.80
2023-01-19T15:41:27.586Z,1.80
2023-01-19T15:43:54.804Z,1.90
2023-01-19T15:46:22.900Z,1.80
2023-01-19T15:48:52.904Z,1.80
2023-01-19T15:51:23.710Z,1.80
2023-01-19T15:53:51.393Z,1.80
2023-01-19T15:56:26.201Z,1.90
2023-01-19T15:58:53.763Z,1.90
2023-01-19T16:01:33.825Z,1.90
2023-01-19T16:04:06.515Z,1.90
2023-01-19T16:06:34.203Z,1.90
2023-01-19T16:09:01.853Z,1.90
2023-01-19T16:11:31.313Z,1.90
2023-01-19T16:13:58.579Z,2.00
2023-01-19T16:16:26.811Z,2.00
2023-01-19T16:18:54.184Z,2.00
2023-01-19T16:21:21.424Z,2.00
2023-01-19T16:23:48.634Z,2.00
2023-01-19T16:26:42.276Z,2.00
2023-01-19T16:29:10.771Z,2.00
2023-01-19T16:31:38.875Z,2.00
2023-01-19T16:34:06.331Z,2.00
2023-01-19T16:36:37.674Z,2.00
2023-01-19T16:39:09.272Z,2.00
2023-01-19T16:41:36.686Z,2.00
2023-01-19T16:44:06.893Z,2.10
2023-01-19T16:46:36.787Z,2.10
2023-01-19T16:49:06.506Z,2.10
2023-01-19T16:51:36.559Z,2.10
2023-01-19T16:54:03.883Z,2.10
2023-01-19T16:56:31.078Z,2.10
2023-01-19T16:59:01.600Z,2.10
2023-01-19T17:01:29.231Z,2.20
2023-01-19T17:03:56.692Z,2.10
2023-01-19T17:06:24.466Z,2.20
2023-01-19T17:08:52.120Z,2.20
2023-01-19T17:11:41.512Z,2.20
2023-01-19T17:14:17.867Z,2.20
2023-01-19T17:16:45.311Z,2.20
2023-01-19T17:19:18.184Z,2.20
2023-01-19T17:21:46.400Z,2.20
2023-01-19T17:24:13.722Z,2.20
2023-01-19T17:26:42.407Z,2.20
2023-01-19T17:29:10.077Z,2.20
2023-01-19T17:31:37.371Z,2.30
2023-01-19T17:34:04.793Z,2.20
2023-01-19T17:36:32.552Z,2.30
2023-01-19T17:39:04.459Z,2.20
2023-01-19T17:41:33.529Z,2.20
2023-01-19T17:44:01.405Z,2.20
2023-01-19T17:46:29.205Z,2.20
2023-01-19T17:48:59.946Z,2.20
2023-01-19T17:51:27.760Z,2.20
2023-01-19T17:53:55.211Z,2.20
2023-01-19T17:56:29.914Z,2.20
2023-01-19T17:58:57.985Z,2.20
2023-01-19T18:01:30.548Z,2.10
2023-01-19T18:03:58.101Z,2.20
2023-01-19T18:06:27.571Z,2.20
2023-01-19T18:08:57.276Z,2.20
2023-01-19T18:11:24.758Z,2.10
2023-01-19T18:13:52.035Z,2.20
2023-01-19T18:16:24.827Z,2.10
2023-01-19T18:18:53.688Z,2.20
2023-01-19T18:21:21.891Z,2.20
2023-01-19T18:23:50.230Z,2.20
2023-01-19T18:26:20.145Z,2.20
2023-01-19T18:28:48.686Z,2.20
2023-01-19T18:31:18.200Z,2.20
2023-01-19T18:33:47.616Z,2.20
2023-01-19T18:36:15.427Z,2.20
2023-01-19T18:38:42.844Z,2.20
2023-01-19T18:41:18.737Z,2.20
2023-01-19T18:43:46.663Z,2.20
2023-01-19T18:46:14.575Z,2.20
2023-01-19T18:48:42.077Z,2.20
2023-01-19T18:51:11.657Z,2.10
2023-01-19T18:53:38.949Z,2.20
2023-01-19T18:56:06.607Z,2.20
2023-01-19T18:58:34.452Z,2.10
2023-01-19T19:01:03.181Z,2.20
2023-01-19T19:03:30.552Z,2.10
2023-01-19T19:06:02.623Z,2.20
2023-01-19T19:08:29.995Z,2.10
2023-01-19T19:10:59.949Z,2.20
2023-01-19T19:13:27.219Z,2.20
2023-01-19T19:15:57.005Z,2.20
2023-01-19T19:18:24.280Z,2.20
2023-01-19T19:20:58.899Z,2.20
2023-01-19T19:23:34.131Z,2.20
2023-01-19T19:26:08.585Z,2.10
2023-01-19T19:29:04.851Z,2.20
2023-01-19T19:31:32.240Z,2.20
2023-01-19T19:33:59.632Z,2.10
2023-01-19T19:36:28.273Z,2.10
2023-01-19T19:38:55.621Z,2.20
2023-01-19T19:41:24.797Z,2.10
2023-01-19T19:43:52.098Z,2.10
2023-01-19T19:46:22.954Z,2.10
2023-01-19T19:48:51.244Z,2.10
2023-01-19T19:51:25.547Z,2.10
2023-01-19T19:53:54.865Z,2.10
2023-01-19T19:56:23.447Z,2.10
2023-01-19T19:58:51.546Z,2.20
2023-01-19T20:01:26.954Z,2.10
2023-01-19T20:03:55.000Z,2.20
2023-01-19T20:06:24.837Z,2.10
2023-01-19T20:08:53.734Z,2.10
2023-01-19T20:11:23.893Z,2.10
2023-01-19T20:13:51.198Z,2.10
2023-01-19T20:16:20.632Z,2.10
2023-01-19T20:18:51.163Z,2.10
2023-01-19T20:21:25.992Z,2.10
2023-01-19T20:23:53.743Z,2.10
2023-01-19T20:26:30.825Z,2.10
2023-01-19T20:28:59.965Z,2.10
2023-01-19T20:31:30.445Z,2.10
2023-01-19T20:33:59.675Z,2.10
2023-01-19T20:36:27.065Z,2.10
2023-01-19T20:38:55.177Z,2.10
2023-01-19T20:41:22.822Z,2.10
2023-01-19T20:43:50.144Z,2.10
2023-01-19T20:46:20.152Z,2.10
2023-01-19T20:48:52.799Z,2.10
2023-01-19T20:51:27.028Z,2.10
2023-01-19T20:53:54.339Z,2.10
2023-01-19T20:56:21.545Z,2.10
2023-01-19T20:58:48.796Z,2.10
2023-01-19T21:01:20.767Z,2.10
2023-01-19T21:03:48.275Z,2.10
2023-01-19T21:06:15.655Z,2.10
2023-01-19T21:08:43.318Z,2.10
2023-01-19T21:11:10.590Z,2.10
2023-01-19T21:13:40.922Z,2.10
2023-01-19T21:16:09.215Z,2.20
2023-01-19T21:18:36.437Z,2.20
2023-01-19T21:21:07.083Z,2.10
2023-01-19T21:23:36.282Z,2.20
2023-01-19T21:26:03.414Z,2.10
2023-01-19T21:28:31.647Z,2.10
2023-01-19T21:31:06.635Z,2.10
2023-01-19T21:33:34.538Z,2.10
2023-01-19T21:36:01.914Z,2.10
2023-01-19T21:38:29.765Z,2.10
2023-01-19T21:40:57.422Z,2.10
2023-01-19T21:43:25.600Z,2.10
2023-01-19T21:45:53.009Z,2.10
2023-01-19T21:48:20.425Z,2.10
2023-01-19T21:50:57.162Z,2.10
2023-01-19T21:53:24.448Z,2.10
2023-01-19T21:55:51.687Z,2.10
2023-01-19T21:58:18.918Z,2.10
2023-01-19T22:00:46.427Z,2.10
2023-01-19T22:03:13.797Z,2.10
2023-01-19T22:05:41.108Z,2.10
2023-01-19T22:08:08.356Z,2.10
2023-01-19T22:10:39.360Z,2.10
2023-01-19T22:13:07.730Z,2.10
2023-01-19T22:15:35.061Z,2.10
2023-01-19T22:18:04.717Z,2.10
2023-01-19T22:20:32.014Z,2.10
2023-01-19T22:22:59.369Z,2.10
2023-01-19T22:25:27.996Z,2.10
2023-01-19T22:27:55.927Z,2.10
2023-01-19T22:30:23.277Z,2.10
2023-01-19T22:32:50.651Z,2.10
2023-01-19T22:35:18.027Z,2.00
2023-01-19T22:37:45.214Z,2.00
2023-01-19T22:40:12.913Z,1.90
2023-01-19T22:42:40.114Z,1.90
2023-01-19T22:45:08.243Z,1.90
2023-01-19T22:47:35.549Z,1.90
2023-01-19T22:50:02.863Z,1.90
2023-01-19T22:52:30.174Z,1.90
2023-01-19T22:55:12.962Z,1.90
2023-01-19T22:57:40.434Z,1.80
2023-01-19T23:00:08.997Z,1.80
2023-01-19T23:02:36.228Z,1.80
2023-01-19T23:05:03.644Z,1.90
2023-01-19T23:07:30.942Z,1.90
2023-01-19T23:09:58.132Z,1.90
2023-01-19T23:12:25.295Z,1.90
2023-01-19T23:14:52.539Z,1.80
2023-01-19T23:17:19.811Z,1.80
2023-01-19T23:19:47.043Z,1.80
2023-01-19T23:22:14.442Z,1.80
2023-01-19T23:24:41.751Z,1.80
2023-01-19T23:27:09.079Z,1.80
2023-01-19T23:29:36.368Z,1.80
2023-01-19T23:32:03.771Z,1.80
2023-01-19T23:34:31.094Z,1.80
2023-01-19T23:36:58.362Z,1.70
2023-01-19T23:39:25.638Z,1.70
2023-01-19T23:41:52.869Z,1.70
2023-01-19T23:44:20.240Z,1.60
2023-01-19T23:46:48.185Z,1.60
2023-01-19T23:49:15.531Z,1.60
2023-01-19T23:51:42.840Z,1.60
2023-01-19T23:54:10.111Z,1.50
2023-01-19T23:56:38.912Z,1.50
2023-01-19T23:59:11.211Z,1.50
